createdAt,value
2022-09-10T00:00:13.418Z,21.20
2022-09-10T00:02:46.225Z,21.20
2022-09-10T00:05:19.035Z,21.20
2022-09-10T00:07:52.459Z,21.10
2022-09-10T00:10:26.926Z,21.10
2022-09-10T00:12:59.519Z,21.10
2022-09-10T00:15:32.098Z,21.10
2022-09-10T00:18:04.755Z,21.10
2022-09-10T00:20:43.899Z,21.20
2022-09-10T00:23:17.914Z,21.20
2022-09-10T00:25:52.680Z,21.20
2022-09-10T00:28:28.220Z,21.20
2022-09-10T00:31:03.581Z,21.30
2022-09-10T00:33:36.215Z,21.30
2022-09-10T00:36:20.251Z,21.30
2022-09-10T00:38:55.375Z,21.30
2022-09-10T00:41:28.852Z,21.40
2022-09-10T00:44:07.325Z,21.30
2022-09-10T00:46:45.288Z,21.30
2022-09-10T00:49:21.870Z,21.30
2022-09-10T00:51:54.858Z,21.30
2022-09-10T00:54:29.958Z,21.30
2022-09-10T00:57:08.695Z,21.30
2022-09-10T00:59:44.273Z,21.30
2022-09-10T01:02:17.041Z,21.30
2022-09-10T01:04:50.460Z,21.20
2022-09-10T01:07:24.361Z,21.20
2022-09-10T01:10:00.519Z,21.20
2022-09-10T01:12:38.470Z,21.20
2022-09-10T01:15:27.369Z,21.20
2022-09-10T01:18:17.449Z,21.20
2022-09-10T01:20:57.627Z,21.30
2022-09-10T01:23:53.211Z,21.30
2022-09-10T01:26:56.820Z,21.30
2022-09-10T01:29:50.899Z,21.30
2022-09-10T01:32:29.870Z,21.30
2022-09-10T01:35:18.167Z,21.30
2022-09-10T01:37:57.838Z,21.20
2022-09-10T01:40:32.816Z,21.20
2022-09-10T01:43:11.858Z,21.30
2022-09-10T01:46:09.249Z,21.20
2022-09-10T01:49:06.103Z,21.20
2022-09-10T01:51:42.825Z,21.20
2022-09-10T01:54:25.773Z,21.20
2022-09-10T01:57:08.174Z,21.20
2022-09-10T02:00:00.222Z,21.20
2022-09-10T02:03:04.652Z,21.10
2022-09-10T02:05:42.448Z,21.10
2022-09-10T02:08:26.597Z,21.00
2022-09-10T02:11:06.798Z,21.00
2022-09-10T02:13:43.019Z,21.00
2022-09-10T02:16:39.547Z,21.00
2022-09-10T02:19:12.431Z,21.00
2022-09-10T02:21:46.861Z,20.90
2022-09-10T02:24:20.499Z,20.90
2022-09-10T02:26:53.292Z,20.90
2022-09-10T02:29:26.566Z,20.90
2022-09-10T02:32:00.120Z,20.90
2022-09-10T02:34:34.776Z,20.80
2022-09-10T02:37:07.464Z,20.90
2022-09-10T02:39:45.290Z,20.90
2022-09-10T02:42:19.313Z,20.80
2022-09-10T02:44:53.822Z,20.80
2022-09-10T02:47:27.302Z,20.70
2022-09-10T02:50:02.679Z,20.80
2022-09-10T02:52:35.653Z,20.80
2022-09-10T02:55:08.829Z,20.80
2022-09-10T02:57:41.329Z,20.90
2022-09-10T03:00:14.084Z,20.90
2022-09-10T03:02:48.324Z,20.90
2022-09-10T03:05:21.150Z,20.90
2022-09-10T03:07:55.793Z,20.90
2022-09-10T03:10:28.536Z,20.90
2022-09-10T03:13:01.554Z,20.90
2022-09-10T03:15:34.146Z,20.90
2022-09-10T03:18:06.904Z,20.90
2022-09-10T03:20:42.005Z,20.90
2022-09-10T03:23:14.595Z,20.90
2022-09-10T03:25:49.781Z,20.90
2022-09-10T03:28:30.203Z,20.90
2022-09-10T03:31:02.842Z,20.90
2022-09-10T03:33:41.156Z,20.90
2022-09-10T03:36:13.881Z,20.90
2022-09-10T03:38:48.444Z,20.90
2022-09-10T03:41:21.784Z,20.90
2022-09-10T03:43:55.190Z,20.90
2022-09-10T03:46:27.843Z,20.90
2022-09-10T03:49:03.557Z,20.90
2022-09-10T03:51:38.829Z,20.90
2022-09-10T03:54:11.615Z,20.90
2022-09-10T03:56:45.256Z,20.90
2022-09-10T03:59:17.967Z,20.80
2022-09-10T04:01:52.340Z,20.80
2022-09-10T04:04:26.164Z,20.80
2022-09-10T04:06:58.821Z,20.80
2022-09-10T04:09:32.991Z,20.80
2022-09-10T04:12:06.332Z,20.80
2022-09-10T04:14:40.450Z,20.80
2022-09-10T04:17:13.860Z,20.90
2022-09-10T04:19:47.868Z,20.90
2022-09-10T04:22:20.550Z,20.80
2022-09-10T04:24:53.176Z,20.80
2022-09-10T04:27:26.927Z,20.80
2022-09-10T04:29:59.587Z,20.80
2022-09-10T04:32:32.140Z,20.70
2022-09-10T04:35:06.141Z,20.80
2022-09-10T04:37:39.498Z,20.70
2022-09-10T04:40:12.381Z,20.70
2022-09-10T04:42:45.334Z,20.70
2022-09-10T04:45:19.535Z,20.70
2022-09-10T04:47:54.576Z,20.70
2022-09-10T04:50:27.469Z,20.70
2022-09-10T04:53:15.788Z,20.70
2022-09-10T04:55:51.848Z,20.70
2022-09-10T04:58:24.663Z,20.70
2022-09-10T05:00:57.795Z,20.70
2022-09-10T05:03:31.105Z,20.70
2022-09-10T05:06:05.359Z,20.60
2022-09-10T05:08:39.157Z,20.70
2022-09-10T05:11:11.709Z,20.70
2022-09-10T05:13:44.686Z,20.70
2022-09-10T05:16:21.610Z,20.70
2022-09-10T05:18:54.645Z,20.70
2022-09-10T05:21:27.527Z,20.70
2022-09-10T05:24:01.182Z,20.70
2022-09-10T05:26:33.714Z,20.60
2022-09-10T05:29:06.809Z,20.60
2022-09-10T05:31:39.425Z,20.60
2022-09-10T05:34:12.013Z,20.60
2022-09-10T05:36:44.539Z,20.60
2022-09-10T05:39:17.186Z,20.60
2022-09-10T05:41:50.827Z,20.50
2022-09-10T05:44:23.652Z,20.60
2022-09-10T05:46:57.140Z,20.50
2022-09-10T05:49:30.957Z,20.50
2022-09-10T05:52:05.755Z,20.50
2022-09-10T05:54:39.670Z,20.40
2022-09-10T05:57:12.291Z,20.40
2022-09-10T05:59:46.674Z,20.40
2022-09-10T06:02:23.976Z,20.30
2022-09-10T06:05:00.356Z,20.30
2022-09-10T06:07:33.284Z,20.30
2022-09-10T06:10:07.008Z,20.30
2022-09-10T06:12:47.569Z,20.20
2022-09-10T06:15:21.606Z,20.30
2022-09-10T06:17:58.414Z,20.30
2022-09-10T06:20:33.043Z,20.40
2022-09-10T06:23:06.348Z,20.40
2022-09-10T06:25:38.909Z,20.50
2022-09-10T06:28:13.067Z,20.50
2022-09-10T06:30:48.194Z,20.60
2022-09-10T06:33:21.413Z,20.60
2022-09-10T06:35:57.772Z,20.70
2022-09-10T06:38:34.345Z,20.80
2022-09-10T06:41:09.374Z,20.90
2022-09-10T06:43:47.145Z,21.00
2022-09-10T06:47:10.949Z,21.20
2022-09-10T06:49:31.542Z,21.30
2022-09-10T06:52:04.595Z,21.30
2022-09-10T06:54:37.854Z,21.30
2022-09-10T06:57:27.209Z,21.40
2022-09-10T07:00:01.305Z,21.50
2022-09-10T07:02:34.968Z,21.60
2022-09-10T07:05:08.952Z,21.80
2022-09-10T07:07:43.655Z,21.90
2022-09-10T07:10:16.530Z,22.00
2022-09-10T07:12:50.704Z,22.00
2022-09-10T07:15:24.690Z,22.10
2022-09-10T07:17:57.573Z,22.30
2022-09-10T07:20:31.702Z,22.50
2022-09-10T07:23:05.010Z,22.60
2022-09-10T07:25:37.851Z,22.80
2022-09-10T07:28:18.345Z,22.80
2022-09-10T07:30:55.498Z,22.90
2022-09-10T07:33:31.200Z,23.00
2022-09-10T07:36:04.126Z,23.20
2022-09-10T07:38:38.942Z,23.30
2022-09-10T07:41:14.110Z,23.40
2022-09-10T07:43:47.627Z,23.50
2022-09-10T07:46:21.735Z,23.60
2022-09-10T07:48:59.309Z,23.70
2022-09-10T07:51:34.579Z,23.70
2022-09-10T07:54:08.333Z,23.70
2022-09-10T07:56:46.436Z,23.90
2022-09-10T07:59:21.270Z,24.00
2022-09-10T08:02:00.647Z,24.00
2022-09-10T08:04:37.954Z,24.00
2022-09-10T08:07:17.522Z,24.10
2022-09-10T08:09:51.740Z,24.10
2022-09-10T08:12:25.633Z,24.10
2022-09-10T08:14:59.988Z,24.20
2022-09-10T08:17:36.749Z,24.20
2022-09-10T08:20:10.913Z,24.20
2022-09-10T08:22:50.103Z,24.40
2022-09-10T08:25:23.034Z,24.40
2022-09-10T08:27:58.038Z,24.50
2022-09-10T08:30:32.372Z,24.50
2022-09-10T08:33:05.750Z,24.60
2022-09-10T08:35:40.661Z,24.80
2022-09-10T08:38:13.466Z,24.80
2022-09-10T08:40:46.692Z,24.90
2022-09-10T08:43:35.313Z,24.90
2022-09-10T08:46:16.986Z,24.90
2022-09-10T08:48:58.720Z,25.00
2022-09-10T08:51:42.695Z,24.90
2022-09-10T08:54:22.394Z,24.80
2022-09-10T08:57:01.295Z,24.90
2022-09-10T08:59:40.862Z,24.90
2022-09-10T09:02:37.932Z,25.00
2022-09-10T09:05:20.437Z,25.20
2022-09-10T09:07:59.821Z,25.30
2022-09-10T09:11:00.012Z,25.30
2022-09-10T09:13:53.845Z,25.30
2022-09-10T09:16:50.417Z,25.40
2022-09-10T09:19:23.533Z,25.40
2022-09-10T09:22:06.385Z,25.50
2022-09-10T09:24:58.198Z,25.50
2022-09-10T09:27:36.978Z,25.50
2022-09-10T09:30:29.331Z,25.50
2022-09-10T09:33:10.751Z,25.60
2022-09-10T09:35:53.395Z,25.60
2022-09-10T09:38:45.058Z,25.60
2022-09-10T09:41:38.202Z,25.60
2022-09-10T09:44:18.474Z,25.60
2022-09-10T09:46:51.291Z,25.80
2022-09-10T09:49:26.676Z,25.80
2022-09-10T09:52:15.335Z,25.80
2022-09-10T09:55:13.826Z,25.70
2022-09-10T09:57:47.553Z,25.50
2022-09-10T10:00:36.700Z,25.50
2022-09-10T10:03:25.994Z,25.70
2022-09-10T10:06:02.784Z,25.90
2022-09-10T10:08:41.561Z,26.00
2022-09-10T10:11:18.322Z,26.30
2022-09-10T10:13:53.336Z,26.50
2022-09-10T10:16:35.880Z,26.70
2022-09-10T10:19:35.135Z,26.90
2022-09-10T10:22:17.291Z,27.00
2022-09-10T10:24:51.944Z,26.90
2022-09-10T10:27:45.478Z,26.80
2022-09-10T10:30:19.083Z,26.60
2022-09-10T10:32:56.464Z,26.40
2022-09-10T10:35:31.105Z,26.20
2022-09-10T10:38:19.952Z,26.10
2022-09-10T10:40:57.198Z,26.20
2022-09-10T10:43:37.661Z,26.20
2022-09-10T10:46:16.989Z,26.20
2022-09-10T10:49:06.329Z,26.20
2022-09-10T10:51:50.063Z,26.30
2022-09-10T10:54:44.490Z,26.50
2022-09-10T10:57:36.604Z,26.40
2022-09-10T11:00:20.558Z,26.50
2022-09-10T11:03:03.241Z,26.60
2022-09-10T11:05:48.432Z,26.80
2022-09-10T11:08:44.141Z,27.10
2022-09-10T11:11:21.302Z,27.40
2022-09-10T11:14:16.532Z,27.40
2022-09-10T11:16:58.871Z,27.60
2022-09-10T11:19:43.641Z,27.60
2022-09-10T11:22:23.152Z,27.60
2022-09-10T11:25:03.063Z,27.70
2022-09-10T11:27:49.723Z,27.70
2022-09-10T11:30:22.695Z,27.80
2022-09-10T11:33:06.132Z,27.80
2022-09-10T11:35:44.728Z,27.80
2022-09-10T11:38:43.064Z,27.70
2022-09-10T11:41:22.517Z,27.50
2022-09-10T11:44:18.361Z,27.20
2022-09-10T11:47:10.772Z,27.30
2022-09-10T11:49:52.846Z,27.40
2022-09-10T11:52:27.035Z,27.50
2022-09-10T11:55:00.525Z,27.50
2022-09-10T11:57:53.974Z,27.70
2022-09-10T12:00:30.246Z,27.60
2022-09-10T12:03:29.048Z,27.80
2022-09-10T12:06:31.561Z,28.00
2022-09-10T12:09:25.218Z,28.20
2022-09-10T12:12:17.774Z,28.30
2022-09-10T12:14:50.586Z,28.50
2022-09-10T12:17:27.572Z,28.60
2022-09-10T12:20:02.968Z,28.60
2022-09-10T12:22:39.238Z,28.40
2022-09-10T12:25:19.752Z,28.20
2022-09-10T12:27:57.597Z,28.20
2022-09-10T12:30:50.466Z,28.40
2022-09-10T12:33:25.067Z,28.50
2022-09-10T12:35:58.823Z,28.40
2022-09-10T12:38:49.045Z,28.50
2022-09-10T12:41:23.828Z,28.50
2022-09-10T12:43:58.735Z,28.60
2022-09-10T12:46:33.485Z,28.60
2022-09-10T12:49:13.265Z,28.70
2022-09-10T12:51:58.799Z,28.50
2022-09-10T12:54:47.354Z,28.60
2022-09-10T12:57:21.618Z,28.70
2022-09-10T13:00:12.618Z,28.70
2022-09-10T13:03:08.280Z,28.80
2022-09-10T13:05:52.140Z,28.90
2022-09-10T13:08:27.670Z,29.00
2022-09-10T13:11:03.392Z,28.90
2022-09-10T13:13:43.461Z,28.70
2022-09-10T13:16:21.581Z,28.70
2022-09-10T13:19:11.846Z,28.40
2022-09-10T13:21:45.489Z,28.20
2022-09-10T13:24:34.792Z,28.00
2022-09-10T13:27:36.144Z,28.00
2022-09-10T13:30:18.036Z,27.80
2022-09-10T13:32:53.534Z,27.70
2022-09-10T13:35:50.892Z,27.60
2022-09-10T13:38:54.370Z,27.50
2022-09-10T13:41:42.601Z,27.40
2022-09-10T13:44:45.665Z,27.40
2022-09-10T13:47:40.647Z,27.30
2022-09-10T13:50:18.653Z,27.30
2022-09-10T13:52:57.275Z,27.20
2022-09-10T13:55:32.299Z,27.20
2022-09-10T13:58:14.434Z,27.20
2022-09-10T14:00:53.222Z,27.20
2022-09-10T14:03:32.993Z,27.20
2022-09-10T14:06:12.471Z,27.10
2022-09-10T14:08:58.842Z,27.20
2022-09-10T14:11:36.890Z,27.20
2022-09-10T14:14:19.455Z,27.20
2022-09-10T14:16:58.028Z,27.20
2022-09-10T14:19:51.398Z,27.30
2022-09-10T14:22:26.837Z,27.40
2022-09-10T14:25:02.201Z,27.60
2022-09-10T14:27:38.080Z,27.80
2022-09-10T14:30:30.245Z,27.90
2022-09-10T14:33:33.827Z,28.10
2022-09-10T14:36:17.458Z,28.10
2022-09-10T14:38:58.358Z,28.20
2022-09-10T14:41:36.344Z,28.20
2022-09-10T14:44:28.115Z,28.10
2022-09-10T14:47:15.047Z,28.20
2022-09-10T14:49:47.801Z,28.20
2022-09-10T14:52:22.731Z,28.30
2022-09-10T14:54:56.313Z,28.20
2022-09-10T14:57:29.121Z,28.20
2022-09-10T15:00:02.055Z,28.30
2022-09-10T15:02:36.529Z,28.20
2022-09-10T15:05:14.824Z,28.00
2022-09-10T15:07:49.081Z,28.00
2022-09-10T15:10:22.089Z,27.90
2022-09-10T15:12:56.797Z,27.70
2022-09-10T15:15:31.504Z,27.70
2022-09-10T15:18:05.807Z,27.60
2022-09-10T15:20:39.053Z,27.60
2022-09-10T15:23:11.856Z,27.70
2022-09-10T15:25:50.999Z,27.70
2022-09-10T15:28:23.963Z,27.70
2022-09-10T15:30:56.577Z,27.70
2022-09-10T15:33:29.374Z,27.60
2022-09-10T15:36:02.859Z,27.60
2022-09-10T15:38:35.592Z,27.60
2022-09-10T15:41:12.632Z,27.60
2022-09-10T15:43:47.020Z,27.70
2022-09-10T15:46:22.144Z,27.70
2022-09-10T15:48:56.224Z,27.90
2022-09-10T15:51:29.045Z,28.00
2022-09-10T15:54:05.011Z,28.00
2022-09-10T15:56:39.170Z,28.10
2022-09-10T15:59:12.056Z,28.00
2022-09-10T16:01:44.747Z,27.90
2022-09-10T16:04:17.652Z,27.80
2022-09-10T16:06:50.424Z,27.70
2022-09-10T16:09:23.259Z,27.60
2022-09-10T16:11:55.817Z,27.50
2022-09-10T16:14:32.874Z,27.40
2022-09-10T16:17:10.815Z,27.30
2022-09-10T16:19:43.965Z,27.20
2022-09-10T16:22:20.545Z,27.20
2022-09-10T16:24:54.495Z,27.10
2022-09-10T16:27:27.021Z,27.10
2022-09-10T16:29:59.611Z,27.00
2022-09-10T16:32:32.113Z,27.10
2022-09-10T16:35:06.048Z,27.00
2022-09-10T16:37:39.151Z,27.00
2022-09-10T16:40:12.126Z,27.00
2022-09-10T16:42:45.000Z,27.00
2022-09-10T16:45:17.724Z,27.00
2022-09-10T16:47:51.340Z,27.00
2022-09-10T16:50:27.319Z,27.00
2022-09-10T16:52:59.939Z,27.00
2022-09-10T16:55:33.148Z,26.90
2022-09-10T16:58:06.097Z,26.90
2022-09-10T17:00:41.055Z,26.80
2022-09-10T17:03:13.899Z,26.70
2022-09-10T17:05:47.891Z,26.70
2022-09-10T17:08:20.537Z,26.60
2022-09-10T17:10:53.869Z,26.60
2022-09-10T17:13:26.583Z,26.50
2022-09-10T17:16:24.363Z,26.40
2022-09-10T17:19:00.786Z,26.40
2022-09-10T17:21:35.861Z,26.30
2022-09-10T17:24:10.405Z,26.20
2022-09-10T17:26:43.401Z,26.10
2022-09-10T17:29:19.109Z,26.00
2022-09-10T17:31:53.484Z,26.00
2022-09-10T17:34:27.607Z,25.90
2022-09-10T17:37:03.165Z,25.90
2022-09-10T17:39:36.049Z,25.80
2022-09-10T17:42:08.772Z,25.70
2022-09-10T17:44:41.573Z,25.70
2022-09-10T17:47:14.764Z,25.60
2022-09-10T17:49:47.732Z,25.60
2022-09-10T17:52:20.408Z,25.50
2022-09-10T17:54:54.536Z,25.50
2022-09-10T17:57:27.708Z,25.40
2022-09-10T18:00:00.327Z,25.40
2022-09-10T18:02:33.194Z,25.30
2022-09-10T18:05:07.873Z,25.30
2022-09-10T18:07:41.053Z,25.30
2022-09-10T18:10:14.420Z,25.20
2022-09-10T18:12:47.258Z,25.20
2022-09-10T18:15:20.022Z,25.20
2022-09-10T18:17:54.680Z,25.10
2022-09-10T18:20:29.950Z,25.10
2022-09-10T18:23:02.902Z,25.10
2022-09-10T18:25:35.469Z,25.00
2022-09-10T18:28:08.172Z,24.90
2022-09-10T18:30:40.861Z,24.90
2022-09-10T18:33:14.237Z,24.90
2022-09-10T18:35:47.603Z,24.80
2022-09-10T18:38:20.370Z,24.80
2022-09-10T18:40:53.335Z,24.80
2022-09-10T18:43:27.371Z,24.70
2022-09-10T18:46:04.657Z,24.70
2022-09-10T18:48:37.662Z,24.60
2022-09-10T18:51:13.006Z,24.60
2022-09-10T18:53:46.534Z,24.60
2022-09-10T18:56:23.573Z,24.60
2022-09-10T18:58:59.704Z,24.60
2022-09-10T19:01:34.355Z,24.50
2022-09-10T19:04:09.400Z,24.50
2022-09-10T19:06:44.943Z,24.40
2022-09-10T19:09:20.109Z,24.40
2022-09-10T19:11:54.621Z,24.40
2022-09-10T19:14:30.927Z,24.40
2022-09-10T19:17:04.002Z,24.30
2022-09-10T19:19:36.742Z,24.30
2022-09-10T19:22:10.869Z,24.20
2022-09-10T19:24:54.632Z,24.20
2022-09-10T19:27:29.890Z,24.20
2022-09-10T19:30:02.536Z,24.10
2022-09-10T19:32:35.176Z,24.10
2022-09-10T19:35:08.224Z,24.10
2022-09-10T19:37:41.379Z,24.00
2022-09-10T19:40:14.336Z,24.00
2022-09-10T19:42:47.092Z,23.90
2022-09-10T19:45:20.386Z,23.90
2022-09-10T19:47:53.261Z,23.90
2022-09-10T19:50:28.517Z,23.90
2022-09-10T19:53:01.173Z,23.80
2022-09-10T19:55:36.013Z,23.80
2022-09-10T19:58:09.015Z,23.80
2022-09-10T20:00:46.812Z,23.70
2022-09-10T20:03:19.672Z,23.70
2022-09-10T20:05:52.425Z,23.60
2022-09-10T20:08:26.337Z,23.60
2022-09-10T20:11:00.436Z,23.60
2022-09-10T20:13:41.381Z,23.50
2022-09-10T20:16:19.529Z,23.40
2022-09-10T20:18:52.785Z,23.50
2022-09-10T20:21:31.759Z,23.50
2022-09-10T20:24:08.145Z,23.50
2022-09-10T20:26:44.090Z,23.40
2022-09-10T20:29:19.486Z,23.40
2022-09-10T20:31:54.806Z,23.40
2022-09-10T20:34:27.917Z,23.40
2022-09-10T20:37:01.947Z,23.40
2022-09-10T20:39:36.685Z,23.40
2022-09-10T20:42:10.599Z,23.40
2022-09-10T20:44:44.523Z,23.40
2022-09-10T20:47:17.801Z,23.30
2022-09-10T20:49:51.057Z,23.30
2022-09-10T20:52:25.504Z,23.30
2022-09-10T20:54:58.129Z,23.30
2022-09-10T20:57:31.028Z,23.20
2022-09-10T21:00:04.420Z,23.10
2022-09-10T21:02:37.212Z,23.10
2022-09-10T21:05:10.073Z,23.00
2022-09-10T21:07:43.137Z,23.00
2022-09-10T21:10:15.927Z,23.00
2022-09-10T21:12:48.734Z,23.00
2022-09-10T21:15:21.928Z,23.00
2022-09-10T21:17:54.938Z,23.00
2022-09-10T21:20:27.586Z,23.00
2022-09-10T21:23:00.637Z,23.00
2022-09-10T21:25:34.027Z,23.00
2022-09-10T21:28:07.598Z,23.00
2022-09-10T21:30:40.842Z,23.00
2022-09-10T21:33:13.495Z,23.00
2022-09-10T21:35:47.015Z,23.00
2022-09-10T21:38:19.559Z,23.00
2022-09-10T21:40:57.749Z,23.00
2022-09-10T21:43:33.800Z,22.90
2022-09-10T21:46:06.723Z,22.90
2022-09-10T21:48:40.867Z,22.90
2022-09-10T21:51:16.200Z,22.90
2022-09-10T21:53:52.348Z,22.90
2022-09-10T21:56:27.861Z,22.90
2022-09-10T21:59:01.103Z,22.90
2022-09-10T22:01:33.899Z,22.80
2022-09-10T22:04:06.707Z,22.80
2022-09-10T22:06:39.962Z,22.80
2022-09-10T22:09:15.401Z,22.80
2022-09-10T22:11:50.483Z,22.80
2022-09-10T22:14:24.712Z,22.70
2022-09-10T22:16:57.334Z,22.60
2022-09-10T22:19:30.134Z,22.60
2022-09-10T22:22:02.869Z,22.60
2022-09-10T22:24:35.645Z,22.60
2022-09-10T22:27:09.618Z,22.50
2022-09-10T22:29:42.795Z,22.50
2022-09-10T22:32:15.996Z,22.50
2022-09-10T22:34:49.273Z,22.50
2022-09-10T22:37:21.870Z,22.50
2022-09-10T22:39:54.445Z,22.50
2022-09-10T22:42:27.318Z,22.50
2022-09-10T22:45:01.572Z,22.50
2022-09-10T22:47:34.210Z,22.50
2022-09-10T22:50:07.152Z,22.50
2022-09-10T22:52:39.851Z,22.40
2022-09-10T22:55:13.775Z,22.40
2022-09-10T22:57:46.272Z,22.40
2022-09-10T23:00:18.856Z,22.40
2022-09-10T23:02:51.384Z,22.40
2022-09-10T23:05:24.142Z,22.40
2022-09-10T23:07:56.969Z,22.40
2022-09-10T23:10:29.938Z,22.30
2022-09-10T23:13:02.574Z,22.30
2022-09-10T23:15:35.138Z,22.20
2022-09-10T23:18:07.604Z,22.10
2022-09-10T23:20:40.306Z,22.10
2022-09-10T23:23:13.065Z,22.00
2022-09-10T23:25:46.370Z,22.00
2022-09-10T23:28:19.000Z,21.90
2022-09-10T23:30:52.090Z,21.90
2022-09-10T23:33:24.742Z,21.80
2022-09-10T23:35:59.662Z,21.70
2022-09-10T23:38:35.713Z,21.70
2022-09-10T23:41:09.102Z,21.60
2022-09-10T23:43:42.155Z,21.60
2022-09-10T23:46:15.196Z,21.60
2022-09-10T23:48:47.781Z,21.60
2022-09-10T23:51:21.474Z,21.60
2022-09-10T23:53:56.168Z,21.70
2022-09-10T23:56:29.267Z,21.70
2022-09-10T23:59:03.750Z,21.70
